Addison, Illinois
Current Conditions -  °F | °C
As of 3:51 AM on Monday 20 Oct 2014 (Local Time) from KORD Reporting Station
Few Clouds Few Clouds  
Wind Chill: 50°   Ceiling: Unl
Heat Index: 50°   Visibility: 10mi
Dew Point: 43°   Wind: 12mph
Humidity: 77%   Direction: 220°SW
Pressure: 29.82"   Gusts: 18mph
Location:  41.93°N, 87.99°W
Report Text: KORD 200851Z 22010G16KT 10SM FEW160 10/06 A2982 RMK AO2 SLP098 T01000061 56021 $
Loading
Personal Weather Stations






























Interactive Weather Map New forecast layout! Learn more

10-Day Weather Forecast

Advertisements
Track Severe Weather on mobile